sensor_id;sensor_type;location;lat;lon;timestamp;P1;durP1;ratioP1;P2;durP2;ratioP2
80481;SDS011;69797;43.864;21.410;2024-03-23T00:55:40;16.85;;;7.53;;
80481;SDS011;69797;43.864;21.410;2024-03-23T00:58:07;13.07;;;7.47;;
80481;SDS011;69797;43.864;21.410;2024-03-23T01:00:33;19.42;;;7.50;;
80481;SDS011;69797;43.864;21.410;2024-03-23T01:02:58;11.60;;;6.10;;
80481;SDS011;69797;43.864;21.410;2024-03-23T01:05:24;19.52;;;7.03;;
80481;SDS011;69797;43.864;21.410;2024-03-23T01:07:50;16.73;;;6.60;;
80481;SDS011;69797;43.864;21.410;2024-03-23T01:10:16;19.73;;;8.57;;
80481;SDS011;69797;43.864;21.410;2024-03-23T01:12:42;23.37;;;9.50;;
80481;SDS011;69797;43.864;21.410;2024-03-23T01:15:08;16.85;;;8.80;;
80481;SDS011;69797;43.864;21.410;2024-03-23T01:17:34;20.77;;;10.57;;
80481;SDS011;69797;43.864;21.410;2024-03-23T01:19:59;17.87;;;10.37;;
80481;SDS011;69797;43.864;21.410;2024-03-23T01:22:26;19.00;;;10.48;;
80481;SDS011;69797;43.864;21.410;2024-03-23T01:24:51;18.52;;;11.25;;
80481;SDS011;69797;43.864;21.410;2024-03-23T01:27:17;16.57;;;10.17;;
80481;SDS011;69797;43.864;21.410;2024-03-23T01:29:43;18.23;;;10.88;;
80481;SDS011;69797;43.864;21.410;2024-03-23T01:32:09;20.60;;;10.70;;
80481;SDS011;69797;43.864;21.410;2024-03-23T01:34:35;19.90;;;10.95;;
80481;SDS011;69797;43.864;21.410;2024-03-23T01:37:01;26.25;;;12.40;;
80481;SDS011;69797;43.864;21.410;2024-03-23T01:39:27;21.83;;;12.80;;
80481;SDS011;69797;43.864;21.410;2024-03-23T01:41:52;22.30;;;12.70;;
80481;SDS011;69797;43.864;21.410;2024-03-23T01:44:18;25.92;;;13.40;;
80481;SDS011;69797;43.864;21.410;2024-03-23T01:46:44;24.65;;;12.27;;
80481;SDS011;69797;43.864;21.410;2024-03-23T01:49:10;24.25;;;11.93;;
80481;SDS011;69797;43.864;21.410;2024-03-23T01:51:37;29.05;;;11.85;;
80481;SDS011;69797;43.864;21.410;2024-03-23T01:54:03;30.02;;;12.57;;
80481;SDS011;69797;43.864;21.410;2024-03-23T01:56:29;27.95;;;12.13;;
80481;SDS011;69797;43.864;21.410;2024-03-23T01:58:58;27.58;;;11.43;;
80481;SDS011;69797;43.864;21.410;2024-03-23T02:01:24;28.70;;;11.57;;
80481;SDS011;69797;43.864;21.410;2024-03-23T02:03:50;24.80;;;11.48;;
80481;SDS011;69797;43.864;21.410;2024-03-23T02:06:16;23.00;;;11.57;;
80481;SDS011;69797;43.864;21.410;2024-03-23T02:08:42;27.45;;;11.88;;
80481;SDS011;69797;43.864;21.410;2024-03-23T02:11:09;20.73;;;12.55;;
80481;SDS011;69797;43.864;21.410;2024-03-23T02:13:35;26.88;;;13.18;;
80481;SDS011;69797;43.864;21.410;2024-03-23T02:16:01;24.40;;;12.13;;
80481;SDS011;69797;43.864;21.410;2024-03-23T02:18:27;28.67;;;13.05;;
80481;SDS011;69797;43.864;21.410;2024-03-23T02:20:53;28.23;;;12.07;;
80481;SDS011;69797;43.864;21.410;2024-03-23T02:23:18;24.40;;;12.17;;
80481;SDS011;69797;43.864;21.410;2024-03-23T02:25:45;24.60;;;12.23;;
80481;SDS011;69797;43.864;21.410;2024-03-23T02:28:11;23.85;;;10.50;;
80481;SDS011;69797;43.864;21.410;2024-03-23T02:30:37;28.70;;;10.43;;
80481;SDS011;69797;43.864;21.410;2024-03-23T02:33:03;26.35;;;11.02;;
80481;SDS011;69797;43.864;21.410;2024-03-23T02:35:29;29.83;;;11.30;;
80481;SDS011;69797;43.864;21.410;2024-03-23T02:37:55;23.77;;;10.98;;
80481;SDS011;69797;43.864;21.410;2024-03-23T02:40:25;25.80;;;10.13;;
80481;SDS011;69797;43.864;21.410;2024-03-23T02:42:51;33.83;;;11.30;;
80481;SDS011;69797;43.864;21.410;2024-03-23T02:45:18;23.38;;;11.75;;
80481;SDS011;69797;43.864;21.410;2024-03-23T02:47:43;23.83;;;10.65;;
80481;SDS011;69797;43.864;21.410;2024-03-23T02:50:09;22.70;;;11.23;;
80481;SDS011;69797;43.864;21.410;2024-03-23T02:52:35;26.40;;;11.20;;
80481;SDS011;69797;43.864;21.410;2024-03-23T02:55:02;26.83;;;10.65;;
80481;SDS011;69797;43.864;21.410;2024-03-23T02:57:29;27.83;;;11.18;;
80481;SDS011;69797;43.864;21.410;2024-03-23T02:59:55;25.63;;;10.93;;
80481;SDS011;69797;43.864;21.410;2024-03-23T03:02:21;20.48;;;9.43;;
80481;SDS011;69797;43.864;21.410;2024-03-23T03:04:47;13.23;;;8.02;;
80481;SDS011;69797;43.864;21.410;2024-03-23T03:07:13;16.67;;;8.23;;
80481;SDS011;69797;43.864;21.410;2024-03-23T03:09:39;12.43;;;7.75;;
80481;SDS011;69797;43.864;21.410;2024-03-23T03:12:06;24.60;;;9.80;;
80481;SDS011;69797;43.864;21.410;2024-03-23T03:14:32;20.05;;;9.45;;
80481;SDS011;69797;43.864;21.410;2024-03-23T03:16:57;21.83;;;9.63;;
80481;SDS011;69797;43.864;21.410;2024-03-23T03:19:23;25.20;;;12.30;;
80481;SDS011;69797;43.864;21.410;2024-03-23T03:21:49;19.30;;;9.53;;
80481;SDS011;69797;43.864;21.410;2024-03-23T03:24:15;13.07;;;8.45;;
80481;SDS011;69797;43.864;21.410;2024-03-23T03:26:42;16.67;;;9.05;;
80481;SDS011;69797;43.864;21.410;2024-03-23T03:29:08;16.23;;;8.25;;
80481;SDS011;69797;43.864;21.410;2024-03-23T03:31:34;14.53;;;7.70;;
80481;SDS011;69797;43.864;21.410;2024-03-23T03:34:00;18.63;;;8.55;;
80481;SDS011;69797;43.864;21.410;2024-03-23T03:36:25;15.90;;;7.27;;
80481;SDS011;69797;43.864;21.410;2024-03-23T03:38:51;12.80;;;7.30;;
80481;SDS011;69797;43.864;21.410;2024-03-23T03:41:18;14.18;;;7.38;;
80481;SDS011;69797;43.864;21.410;2024-03-23T03:43:44;12.85;;;7.30;;
80481;SDS011;69797;43.864;21.410;2024-03-23T03:46:09;16.58;;;8.57;;
80481;SDS011;69797;43.864;21.410;2024-03-23T03:48:36;14.30;;;8.40;;
80481;SDS011;69797;43.864;21.410;2024-03-23T03:51:02;14.10;;;7.70;;
80481;SDS011;69797;43.864;21.410;2024-03-23T03:53:29;23.92;;;8.65;;
80481;SDS011;69797;43.864;21.410;2024-03-23T03:55:56;16.38;;;8.48;;
80481;SDS011;69797;43.864;21.410;2024-03-23T03:58:22;13.98;;;8.43;;
80481;SDS011;69797;43.864;21.410;2024-03-23T04:00:48;14.02;;;8.18;;
80481;SDS011;69797;43.864;21.410;2024-03-23T04:03:13;27.00;;;9.00;;
80481;SDS011;69797;43.864;21.410;2024-03-23T04:05:39;14.48;;;8.07;;
80481;SDS011;69797;43.864;21.410;2024-03-23T04:08:05;19.25;;;8.35;;
80481;SDS011;69797;43.864;21.410;2024-03-23T04:10:32;20.75;;;8.57;;
80481;SDS011;69797;43.864;21.410;2024-03-23T04:12:58;16.03;;;8.43;;
80481;SDS011;69797;43.864;21.410;2024-03-23T04:15:24;24.75;;;9.23;;
80481;SDS011;69797;43.864;21.410;2024-03-23T04:17:50;20.83;;;9.43;;
80481;SDS011;69797;43.864;21.410;2024-03-23T04:20:15;20.33;;;8.93;;
80481;SDS011;69797;43.864;21.410;2024-03-23T04:22:42;17.33;;;9.73;;
80481;SDS011;69797;43.864;21.410;2024-03-23T04:25:08;22.48;;;9.00;;
80481;SDS011;69797;43.864;21.410;2024-03-23T04:27:39;21.27;;;9.73;;
80481;SDS011;69797;43.864;21.410;2024-03-23T04:30:06;20.58;;;9.52;;
80481;SDS011;69797;43.864;21.410;2024-03-23T04:32:39;21.40;;;10.18;;
80481;SDS011;69797;43.864;21.410;2024-03-23T04:35:05;24.50;;;10.02;;
80481;SDS011;69797;43.864;21.410;2024-03-23T04:37:32;16.52;;;9.95;;
80481;SDS011;69797;43.864;21.410;2024-03-23T04:39:59;19.45;;;9.55;;
80481;SDS011;69797;43.864;21.410;2024-03-23T04:42:27;23.00;;;10.13;;
80481;SDS011;69797;43.864;21.410;2024-03-23T04:44:53;22.65;;;10.68;;
80481;SDS011;69797;43.864;21.410;2024-03-23T04:47:19;14.60;;;8.90;;
80481;SDS011;69797;43.864;21.410;2024-03-23T04:49:44;18.67;;;8.33;;
80481;SDS011;69797;43.864;21.410;2024-03-23T04:52:10;17.15;;;8.63;;
80481;SDS011;69797;43.864;21.410;2024-03-23T04:54:37;15.10;;;7.55;;
80481;SDS011;69797;43.864;21.410;2024-03-23T04:57:05;23.93;;;9.47;;
80481;SDS011;69797;43.864;21.410;2024-03-23T04:59:31;15.80;;;9.05;;
80481;SDS011;69797;43.864;21.410;2024-03-23T05:01:58;16.95;;;9.50;;
80481;SDS011;69797;43.864;21.410;2024-03-23T05:04:25;24.75;;;9.98;;
80481;SDS011;69797;43.864;21.410;2024-03-23T05:06:52;24.65;;;10.25;;
80481;SDS011;69797;43.864;21.410;2024-03-23T05:09:18;18.60;;;9.23;;
80481;SDS011;69797;43.864;21.410;2024-03-23T05:11:43;19.40;;;8.93;;
80481;SDS011;69797;43.864;21.410;2024-03-23T05:14:10;20.38;;;9.52;;
80481;SDS011;69797;43.864;21.410;2024-03-23T05:16:38;18.35;;;9.55;;
80481;SDS011;69797;43.864;21.410;2024-03-23T05:19:03;23.73;;;8.98;;
80481;SDS011;69797;43.864;21.410;2024-03-23T05:21:29;16.80;;;8.85;;
80481;SDS011;69797;43.864;21.410;2024-03-23T05:23:55;19.20;;;10.03;;
80481;SDS011;69797;43.864;21.410;2024-03-23T05:26:21;19.13;;;9.75;;
80481;SDS011;69797;43.864;21.410;2024-03-23T05:28:48;16.20;;;9.53;;
80481;SDS011;69797;43.864;21.410;2024-03-23T05:31:24;19.92;;;9.73;;
80481;SDS011;69797;43.864;21.410;2024-03-23T05:33:53;17.58;;;9.85;;
80481;SDS011;69797;43.864;21.410;2024-03-23T05:36:19;20.42;;;11.45;;
80481;SDS011;69797;43.864;21.410;2024-03-23T05:38:46;22.33;;;12.02;;
80481;SDS011;69797;43.864;21.410;2024-03-23T05:41:12;21.43;;;14.53;;
80481;SDS011;69797;43.864;21.410;2024-03-23T05:43:38;19.13;;;10.82;;
80481;SDS011;69797;43.864;21.410;2024-03-23T05:46:04;21.38;;;11.10;;
80481;SDS011;69797;43.864;21.410;2024-03-23T05:48:31;20.10;;;11.13;;
80481;SDS011;69797;43.864;21.410;2024-03-23T05:50:57;18.42;;;10.38;;
80481;SDS011;69797;43.864;21.410;2024-03-23T05:53:23;20.93;;;10.67;;
80481;SDS011;69797;43.864;21.410;2024-03-23T05:55:50;18.48;;;11.05;;
80481;SDS011;69797;43.864;21.410;2024-03-23T05:58:18;16.33;;;9.77;;
80481;SDS011;69797;43.864;21.410;2024-03-23T06:00:45;17.17;;;11.68;;
80481;SDS011;69797;43.864;21.410;2024-03-23T06:03:11;16.60;;;10.07;;
80481;SDS011;69797;43.864;21.410;2024-03-23T06:05:37;19.15;;;10.68;;
80481;SDS011;69797;43.864;21.410;2024-03-23T06:08:03;16.95;;;10.70;;
80481;SDS011;69797;43.864;21.410;2024-03-23T06:10:30;16.73;;;12.55;;
80481;SDS011;69797;43.864;21.410;2024-03-23T06:12:57;15.43;;;11.23;;
80481;SDS011;69797;43.864;21.410;2024-03-23T06:15:24;17.23;;;10.88;;
80481;SDS011;69797;43.864;21.410;2024-03-23T06:17:52;16.10;;;11.73;;
80481;SDS011;69797;43.864;21.410;2024-03-23T06:20:18;15.75;;;10.52;;
80481;SDS011;69797;43.864;21.410;2024-03-23T06:22:44;15.87;;;10.20;;
80481;SDS011;69797;43.864;21.410;2024-03-23T06:25:10;15.48;;;9.98;;
80481;SDS011;69797;43.864;21.410;2024-03-23T06:27:38;13.40;;;10.13;;
80481;SDS011;69797;43.864;21.410;2024-03-23T06:30:04;13.95;;;10.02;;
80481;SDS011;69797;43.864;21.410;2024-03-23T06:32:31;13.60;;;10.80;;
80481;SDS011;69797;43.864;21.410;2024-03-23T06:34:57;13.02;;;9.30;;
80481;SDS011;69797;43.864;21.410;2024-03-23T06:37:23;13.50;;;10.20;;
80481;SDS011;69797;43.864;21.410;2024-03-23T06:39:49;14.10;;;10.25;;
80481;SDS011;69797;43.864;21.410;2024-03-23T06:42:14;13.43;;;10.57;;
80481;SDS011;69797;43.864;21.410;2024-03-23T06:44:40;12.35;;;9.82;;
80481;SDS011;69797;43.864;21.410;2024-03-23T06:47:06;14.23;;;10.80;;
80481;SDS011;69797;43.864;21.410;2024-03-23T06:49:32;12.38;;;9.75;;
80481;SDS011;69797;43.864;21.410;2024-03-23T06:51:58;13.20;;;10.55;;
80481;SDS011;69797;43.864;21.410;2024-03-23T06:54:24;15.87;;;10.60;;
80481;SDS011;69797;43.864;21.410;2024-03-23T06:56:50;13.88;;;10.45;;
80481;SDS011;69797;43.864;21.410;2024-03-23T06:59:15;13.77;;;9.85;;
80481;SDS011;69797;43.864;21.410;2024-03-23T07:01:41;12.97;;;10.10;;
80481;SDS011;69797;43.864;21.410;2024-03-23T07:04:07;14.93;;;9.95;;
80481;SDS011;69797;43.864;21.410;2024-03-23T07:06:33;12.93;;;10.35;;
80481;SDS011;69797;43.864;21.410;2024-03-23T07:08:59;16.03;;;10.70;;
80481;SDS011;69797;43.864;21.410;2024-03-23T07:11:25;13.88;;;9.77;;
80481;SDS011;69797;43.864;21.410;2024-03-23T07:13:52;11.37;;;8.50;;
80481;SDS011;69797;43.864;21.410;2024-03-23T07:16:22;10.75;;;7.85;;
80481;SDS011;69797;43.864;21.410;2024-03-23T07:18:47;15.15;;;7.95;;
80481;SDS011;69797;43.864;21.410;2024-03-23T07:21:15;13.65;;;8.18;;
80481;SDS011;69797;43.864;21.410;2024-03-23T07:23:44;11.97;;;8.57;;
80481;SDS011;69797;43.864;21.410;2024-03-23T07:26:10;11.25;;;8.20;;
80481;SDS011;69797;43.864;21.410;2024-03-23T07:28:36;10.57;;;8.63;;
80481;SDS011;69797;43.864;21.410;2024-03-23T07:33:34;11.02;;;8.80;;
80481;SDS011;69797;43.864;21.410;2024-03-23T07:36:00;11.75;;;8.43;;
80481;SDS011;69797;43.864;21.410;2024-03-23T07:38:27;12.20;;;8.77;;
80481;SDS011;69797;43.864;21.410;2024-03-23T07:41:04;14.35;;;10.18;;
80481;SDS011;69797;43.864;21.410;2024-03-23T07:43:37;15.37;;;8.80;;
80481;SDS011;69797;43.864;21.410;2024-03-23T07:46:04;11.63;;;9.07;;
80481;SDS011;69797;43.864;21.410;2024-03-23T07:48:30;11.90;;;9.35;;
80481;SDS011;69797;43.864;21.410;2024-03-23T07:53:33;9.75;;;8.55;;
80481;SDS011;69797;43.864;21.410;2024-03-23T07:56:00;10.30;;;8.63;;
80481;SDS011;69797;43.864;21.410;2024-03-23T07:58:27;10.13;;;8.73;;
80481;SDS011;69797;43.864;21.410;2024-03-23T08:00:54;10.65;;;8.82;;
80481;SDS011;69797;43.864;21.410;2024-03-23T08:03:21;9.35;;;8.35;;
80481;SDS011;69797;43.864;21.410;2024-03-23T08:05:47;12.15;;;9.00;;
80481;SDS011;69797;43.864;21.410;2024-03-23T08:08:13;10.20;;;9.10;;
80481;SDS011;69797;43.864;21.410;2024-03-23T08:13:15;10.60;;;9.43;;
80481;SDS011;69797;43.864;21.410;2024-03-23T08:15:41;10.85;;;9.75;;
80481;SDS011;69797;43.864;21.410;2024-03-23T08:18:07;10.13;;;8.30;;
80481;SDS011;69797;43.864;21.410;2024-03-23T08:20:33;13.60;;;10.32;;
80481;SDS011;69797;43.864;21.410;2024-03-23T08:22:59;11.52;;;9.40;;
80481;SDS011;69797;43.864;21.410;2024-03-23T08:25:25;11.40;;;9.30;;
80481;SDS011;69797;43.864;21.410;2024-03-23T08:27:50;9.70;;;8.43;;
80481;SDS011;69797;43.864;21.410;2024-03-23T08:30:16;10.15;;;8.82;;
80481;SDS011;69797;43.864;21.410;2024-03-23T08:32:42;10.73;;;9.60;;
80481;SDS011;69797;43.864;21.410;2024-03-23T08:35:08;10.55;;;8.15;;
80481;SDS011;69797;43.864;21.410;2024-03-23T08:37:34;11.18;;;8.35;;
80481;SDS011;69797;43.864;21.410;2024-03-23T08:40:00;10.37;;;8.20;;
80481;SDS011;69797;43.864;21.410;2024-03-23T08:42:26;10.68;;;9.00;;
80481;SDS011;69797;43.864;21.410;2024-03-23T08:44:52;10.00;;;8.30;;
80481;SDS011;69797;43.864;21.410;2024-03-23T08:47:17;9.38;;;8.05;;
80481;SDS011;69797;43.864;21.410;2024-03-23T08:49:44;11.90;;;8.47;;
80481;SDS011;69797;43.864;21.410;2024-03-23T08:52:10;9.20;;;7.43;;
80481;SDS011;69797;43.864;21.410;2024-03-23T08:54:36;10.00;;;8.55;;
80481;SDS011;69797;43.864;21.410;2024-03-23T08:57:01;12.73;;;7.90;;
80481;SDS011;69797;43.864;21.410;2024-03-23T08:59:27;12.70;;;7.82;;
80481;SDS011;69797;43.864;21.410;2024-03-23T09:01:53;9.90;;;7.93;;
80481;SDS011;69797;43.864;21.410;2024-03-23T09:04:19;9.77;;;7.13;;
80481;SDS011;69797;43.864;21.410;2024-03-23T09:06:45;12.73;;;7.28;;
80481;SDS011;69797;43.864;21.410;2024-03-23T09:09:11;9.93;;;7.37;;
80481;SDS011;69797;43.864;21.410;2024-03-23T09:11:36;11.65;;;6.78;;
80481;SDS011;69797;43.864;21.410;2024-03-23T09:14:03;11.70;;;7.30;;
80481;SDS011;69797;43.864;21.410;2024-03-23T09:16:29;9.57;;;7.90;;
80481;SDS011;69797;43.864;21.410;2024-03-23T09:18:54;10.23;;;5.97;;
80481;SDS011;69797;43.864;21.410;2024-03-23T09:21:20;11.23;;;5.97;;
80481;SDS011;69797;43.864;21.410;2024-03-23T09:23:46;14.07;;;6.10;;
80481;SDS011;69797;43.864;21.410;2024-03-23T09:26:12;10.23;;;6.60;;
80481;SDS011;69797;43.864;21.410;2024-03-23T09:28:38;8.68;;;6.03;;
80481;SDS011;69797;43.864;21.410;2024-03-23T09:33:30;8.65;;;5.13;;
80481;SDS011;69797;43.864;21.410;2024-03-23T09:35:56;9.98;;;5.57;;
80481;SDS011;69797;43.864;21.410;2024-03-23T09:38:22;9.70;;;5.27;;
80481;SDS011;69797;43.864;21.410;2024-03-23T09:40:52;8.52;;;5.72;;
80481;SDS011;69797;43.864;21.410;2024-03-23T09:43:19;9.23;;;5.53;;
80481;SDS011;69797;43.864;21.410;2024-03-23T09:45:45;9.90;;;6.03;;
80481;SDS011;69797;43.864;21.410;2024-03-23T09:48:12;10.35;;;6.28;;
80481;SDS011;69797;43.864;21.410;2024-03-23T09:53:07;10.88;;;5.07;;
80481;SDS011;69797;43.864;21.410;2024-03-23T09:55:34;10.32;;;5.03;;
80481;SDS011;69797;43.864;21.410;2024-03-23T09:58:04;10.30;;;5.07;;
80481;SDS011;69797;43.864;21.410;2024-03-23T10:00:34;11.90;;;5.40;;
80481;SDS011;69797;43.864;21.410;2024-03-23T10:03:01;7.10;;;4.83;;
80481;SDS011;69797;43.864;21.410;2024-03-23T10:05:30;10.82;;;5.13;;
80481;SDS011;69797;43.864;21.410;2024-03-23T10:08:35;9.25;;;6.40;;
80481;SDS011;69797;43.864;21.410;2024-03-23T10:10:54;8.52;;;5.07;;
80481;SDS011;69797;43.864;21.410;2024-03-23T10:13:24;6.67;;;4.07;;
80481;SDS011;69797;43.864;21.410;2024-03-23T10:15:57;7.10;;;5.13;;
80481;SDS011;69797;43.864;21.410;2024-03-23T10:18:24;7.15;;;4.40;;
80481;SDS011;69797;43.864;21.410;2024-03-23T10:20:52;7.55;;;4.70;;
80481;SDS011;69797;43.864;21.410;2024-03-23T10:23:34;7.65;;;4.78;;
80481;SDS011;69797;43.864;21.410;2024-03-23T10:26:22;11.17;;;4.73;;
80481;SDS011;69797;43.864;21.410;2024-03-23T10:31:33;8.23;;;4.97;;
80481;SDS011;69797;43.864;21.410;2024-03-23T10:34:02;7.53;;;4.82;;
80481;SDS011;69797;43.864;21.410;2024-03-23T10:36:29;14.32;;;6.35;;
80481;SDS011;69797;43.864;21.410;2024-03-23T10:38:55;10.70;;;5.23;;
80481;SDS011;69797;43.864;21.410;2024-03-23T10:41:26;13.57;;;5.82;;
80481;SDS011;69797;43.864;21.410;2024-03-23T10:43:53;9.65;;;4.30;;
80481;SDS011;69797;43.864;21.410;2024-03-23T10:46:22;8.75;;;4.90;;
80481;SDS011;69797;43.864;21.410;2024-03-23T10:48:48;8.50;;;4.47;;
80481;SDS011;69797;43.864;21.410;2024-03-23T10:51:14;9.07;;;4.47;;
80481;SDS011;69797;43.864;21.410;2024-03-23T10:53:40;8.90;;;5.00;;
80481;SDS011;69797;43.864;21.410;2024-03-23T10:56:06;8.37;;;4.73;;
80481;SDS011;69797;43.864;21.410;2024-03-23T10:58:43;8.27;;;4.47;;
80481;SDS011;69797;43.864;21.410;2024-03-23T11:01:12;7.68;;;4.10;;
80481;SDS011;69797;43.864;21.410;2024-03-23T11:03:39;8.00;;;6.07;;
80481;SDS011;69797;43.864;21.410;2024-03-23T11:06:09;12.40;;;6.00;;
80481;SDS011;69797;43.864;21.410;2024-03-23T11:08:36;7.30;;;4.33;;
80481;SDS011;69797;43.864;21.410;2024-03-23T11:11:19;9.80;;;4.60;;
80481;SDS011;69797;43.864;21.410;2024-03-23T11:13:47;8.77;;;4.10;;
80481;SDS011;69797;43.864;21.410;2024-03-23T11:16:28;10.88;;;5.20;;
80481;SDS011;69797;43.864;21.410;2024-03-23T11:22:04;6.10;;;4.03;;
80481;SDS011;69797;43.864;21.410;2024-03-23T11:24:31;7.00;;;3.90;;
80481;SDS011;69797;43.864;21.410;2024-03-23T11:26:57;8.00;;;4.35;;
80481;SDS011;69797;43.864;21.410;2024-03-23T11:29:29;6.45;;;4.18;;
80481;SDS011;69797;43.864;21.410;2024-03-23T11:31:55;10.48;;;3.90;;
80481;SDS011;69797;43.864;21.410;2024-03-23T11:34:21;8.47;;;4.13;;
80481;SDS011;69797;43.864;21.410;2024-03-23T11:36:47;6.57;;;3.95;;
80481;SDS011;69797;43.864;21.410;2024-03-23T11:39:14;6.28;;;3.85;;
80481;SDS011;69797;43.864;21.410;2024-03-23T11:41:51;5.97;;;3.58;;
80481;SDS011;69797;43.864;21.410;2024-03-23T11:44:27;6.22;;;3.83;;
80481;SDS011;69797;43.864;21.410;2024-03-23T11:46:53;4.70;;;3.07;;
80481;SDS011;69797;43.864;21.410;2024-03-23T11:49:22;6.10;;;3.45;;
80481;SDS011;69797;43.864;21.410;2024-03-23T11:51:49;5.10;;;3.42;;
80481;SDS011;69797;43.864;21.410;2024-03-23T11:54:16;6.37;;;3.40;;
80481;SDS011;69797;43.864;21.410;2024-03-23T11:56:58;6.20;;;3.72;;
80481;SDS011;69797;43.864;21.410;2024-03-23T11:59:38;5.32;;;3.28;;
80481;SDS011;69797;43.864;21.410;2024-03-23T12:02:10;14.68;;;3.63;;
80481;SDS011;69797;43.864;21.410;2024-03-23T12:04:37;5.57;;;3.23;;
80481;SDS011;69797;43.864;21.410;2024-03-23T12:09:41;4.50;;;3.25;;
80481;SDS011;69797;43.864;21.410;2024-03-23T12:12:11;6.10;;;3.50;;
80481;SDS011;69797;43.864;21.410;2024-03-23T12:14:41;7.32;;;3.85;;
80481;SDS011;69797;43.864;21.410;2024-03-23T12:17:11;5.57;;;3.23;;
80481;SDS011;69797;43.864;21.410;2024-03-23T12:19:41;4.45;;;3.15;;
80481;SDS011;69797;43.864;21.410;2024-03-23T12:22:08;5.82;;;3.40;;
80481;SDS011;69797;43.864;21.410;2024-03-23T12:24:34;6.20;;;3.40;;
80481;SDS011;69797;43.864;21.410;2024-03-23T12:27:03;6.65;;;3.67;;
80481;SDS011;69797;43.864;21.410;2024-03-23T12:29:32;6.70;;;3.20;;
80481;SDS011;69797;43.864;21.410;2024-03-23T12:32:02;4.97;;;3.20;;
80481;SDS011;69797;43.864;21.410;2024-03-23T12:34:28;5.85;;;3.70;;
80481;SDS011;69797;43.864;21.410;2024-03-23T12:36:55;6.82;;;3.80;;
80481;SDS011;69797;43.864;21.410;2024-03-23T12:39:21;6.10;;;3.22;;
80481;SDS011;69797;43.864;21.410;2024-03-23T12:41:48;5.17;;;3.43;;
80481;SDS011;69797;43.864;21.410;2024-03-23T12:44:18;6.63;;;3.15;;
80481;SDS011;69797;43.864;21.410;2024-03-23T12:46:44;5.38;;;3.35;;
80481;SDS011;69797;43.864;21.410;2024-03-23T12:49:10;7.45;;;3.80;;
80481;SDS011;69797;43.864;21.410;2024-03-23T12:51:36;8.30;;;3.60;;
80481;SDS011;69797;43.864;21.410;2024-03-23T12:54:02;4.20;;;3.10;;
80481;SDS011;69797;43.864;21.410;2024-03-23T12:56:28;6.57;;;3.30;;
80481;SDS011;69797;43.864;21.410;2024-03-23T12:58:55;5.85;;;3.25;;
80481;SDS011;69797;43.864;21.410;2024-03-23T13:01:25;4.97;;;3.40;;
80481;SDS011;69797;43.864;21.410;2024-03-23T13:03:52;5.47;;;3.35;;
80481;SDS011;69797;43.864;21.410;2024-03-23T13:06:18;5.50;;;3.73;;
80481;SDS011;69797;43.864;21.410;2024-03-23T13:08:44;6.13;;;3.60;;
80481;SDS011;69797;43.864;21.410;2024-03-23T13:11:11;5.95;;;3.53;;
80481;SDS011;69797;43.864;21.410;2024-03-23T13:13:38;5.88;;;3.47;;
80481;SDS011;69797;43.864;21.410;2024-03-23T13:16:04;5.73;;;3.40;;
80481;SDS011;69797;43.864;21.410;2024-03-23T13:18:31;4.82;;;3.20;;
80481;SDS011;69797;43.864;21.410;2024-03-23T13:20:57;4.13;;;2.70;;
80481;SDS011;69797;43.864;21.410;2024-03-23T13:23:23;5.18;;;3.30;;
80481;SDS011;69797;43.864;21.410;2024-03-23T13:25:52;5.23;;;3.17;;
80481;SDS011;69797;43.864;21.410;2024-03-23T13:28:19;6.55;;;3.53;;
80481;SDS011;69797;43.864;21.410;2024-03-23T13:30:52;5.38;;;3.53;;
80481;SDS011;69797;43.864;21.410;2024-03-23T13:33:19;4.10;;;2.65;;
80481;SDS011;69797;43.864;21.410;2024-03-23T13:35:51;6.32;;;3.67;;
80481;SDS011;69797;43.864;21.410;2024-03-23T13:38:21;4.90;;;3.53;;
80481;SDS011;69797;43.864;21.410;2024-03-23T13:40:51;5.40;;;3.25;;
80481;SDS011;69797;43.864;21.410;2024-03-23T13:43:20;4.93;;;3.13;;
80481;SDS011;69797;43.864;21.410;2024-03-23T13:45:46;7.10;;;3.67;;
80481;SDS011;69797;43.864;21.410;2024-03-23T13:48:14;5.57;;;3.28;;
80481;SDS011;69797;43.864;21.410;2024-03-23T13:50:41;5.83;;;3.07;;
80481;SDS011;69797;43.864;21.410;2024-03-23T13:53:06;7.07;;;3.40;;
80481;SDS011;69797;43.864;21.410;2024-03-23T13:55:34;4.63;;;3.10;;
80481;SDS011;69797;43.864;21.410;2024-03-23T13:57:59;5.10;;;3.07;;
80481;SDS011;69797;43.864;21.410;2024-03-23T14:00:25;6.82;;;3.75;;
80481;SDS011;69797;43.864;21.410;2024-03-23T14:02:51;7.67;;;3.40;;
80481;SDS011;69797;43.864;21.410;2024-03-23T14:05:17;6.63;;;3.20;;
80481;SDS011;69797;43.864;21.410;2024-03-23T14:07:42;6.17;;;3.30;;
80481;SDS011;69797;43.864;21.410;2024-03-23T14:10:08;6.07;;;3.70;;
80481;SDS011;69797;43.864;21.410;2024-03-23T14:12:37;5.80;;;3.80;;
80481;SDS011;69797;43.864;21.410;2024-03-23T14:15:06;7.63;;;4.88;;
80481;SDS011;69797;43.864;21.410;2024-03-23T14:17:32;7.43;;;4.00;;
80481;SDS011;69797;43.864;21.410;2024-03-23T14:19:58;5.13;;;3.25;;
80481;SDS011;69797;43.864;21.410;2024-03-23T14:22:27;5.35;;;3.17;;
80481;SDS011;69797;43.864;21.410;2024-03-23T14:24:53;7.85;;;3.78;;
80481;SDS011;69797;43.864;21.410;2024-03-23T14:27:19;5.70;;;3.50;;
80481;SDS011;69797;43.864;21.410;2024-03-23T14:29:48;5.85;;;3.67;;
80481;SDS011;69797;43.864;21.410;2024-03-23T14:32:14;4.32;;;3.20;;
80481;SDS011;69797;43.864;21.410;2024-03-23T14:34:41;7.63;;;3.80;;
80481;SDS011;69797;43.864;21.410;2024-03-23T14:37:07;8.50;;;3.30;;
80481;SDS011;69797;43.864;21.410;2024-03-23T14:39:33;5.40;;;3.30;;
80481;SDS011;69797;43.864;21.410;2024-03-23T14:42:00;6.60;;;4.00;;
80481;SDS011;69797;43.864;21.410;2024-03-23T14:44:27;6.70;;;3.33;;
80481;SDS011;69797;43.864;21.410;2024-03-23T14:46:54;5.60;;;3.83;;
80481;SDS011;69797;43.864;21.410;2024-03-23T14:49:20;6.27;;;3.37;;
80481;SDS011;69797;43.864;21.410;2024-03-23T14:51:46;5.47;;;3.63;;
80481;SDS011;69797;43.864;21.410;2024-03-23T14:54:12;5.97;;;3.55;;
80481;SDS011;69797;43.864;21.410;2024-03-23T14:56:38;5.90;;;3.75;;
80481;SDS011;69797;43.864;21.410;2024-03-23T14:59:04;7.13;;;4.13;;
80481;SDS011;69797;43.864;21.410;2024-03-23T15:01:31;6.43;;;4.20;;
80481;SDS011;69797;43.864;21.410;2024-03-23T15:03:57;8.10;;;3.78;;
80481;SDS011;69797;43.864;21.410;2024-03-23T15:06:23;5.90;;;4.17;;
80481;SDS011;69797;43.864;21.410;2024-03-23T15:08:48;6.55;;;4.20;;
80481;SDS011;69797;43.864;21.410;2024-03-23T15:11:14;9.07;;;3.80;;
80481;SDS011;69797;43.864;21.410;2024-03-23T15:13:43;9.68;;;3.85;;
80481;SDS011;69797;43.864;21.410;2024-03-23T15:16:09;6.05;;;3.17;;
80481;SDS011;69797;43.864;21.410;2024-03-23T15:18:35;11.27;;;4.85;;
80481;SDS011;69797;43.864;21.410;2024-03-23T15:21:01;6.80;;;4.50;;
80481;SDS011;69797;43.864;21.410;2024-03-23T15:23:28;7.70;;;4.37;;
80481;SDS011;69797;43.864;21.410;2024-03-23T15:25:55;8.10;;;4.65;;
80481;SDS011;69797;43.864;21.410;2024-03-23T15:28:25;8.18;;;4.75;;
80481;SDS011;69797;43.864;21.410;2024-03-23T15:31:11;8.82;;;4.60;;
80481;SDS011;69797;43.864;21.410;2024-03-23T15:33:37;7.93;;;4.10;;
80481;SDS011;69797;43.864;21.410;2024-03-23T15:36:04;6.88;;;3.72;;
80481;SDS011;69797;43.864;21.410;2024-03-23T15:38:31;8.05;;;3.92;;